sensor_id;sensor_type;location;lat;lon;timestamp;P1;durP1;ratioP1;P2;durP2;ratioP2
35667;SDS011;22158;59.280;17.806;2022-11-15T05:01:15;4.05;;;2.50;;
35667;SDS011;22158;59.280;17.806;2022-11-15T05:03:41;3.15;;;2.22;;
35667;SDS011;22158;59.280;17.806;2022-11-15T05:06:26;3.88;;;2.47;;
35667;SDS011;22158;59.280;17.806;2022-11-15T05:08:52;4.93;;;2.72;;
35667;SDS011;22158;59.280;17.806;2022-11-15T05:11:18;5.65;;;2.10;;
35667;SDS011;22158;59.280;17.806;2022-11-15T05:13:45;3.33;;;2.38;;
35667;SDS011;22158;59.280;17.806;2022-11-15T05:16:11;3.55;;;2.35;;
35667;SDS011;22158;59.280;17.806;2022-11-15T05:18:36;2.53;;;2.03;;
35667;SDS011;22158;59.280;17.806;2022-11-15T05:21:05;6.22;;;2.45;;
35667;SDS011;22158;59.280;17.806;2022-11-15T05:23:32;3.53;;;2.17;;
35667;SDS011;22158;59.280;17.806;2022-11-15T05:25:59;5.53;;;2.45;;
35667;SDS011;22158;59.280;17.806;2022-11-15T05:28:25;4.22;;;2.42;;
35667;SDS011;22158;59.280;17.806;2022-11-15T05:30:51;3.67;;;2.58;;
35667;SDS011;22158;59.280;17.806;2022-11-15T05:33:17;7.03;;;2.10;;
35667;SDS011;22158;59.280;17.806;2022-11-15T05:35:44;7.75;;;2.03;;
35667;SDS011;22158;59.280;17.806;2022-11-15T05:38:15;3.25;;;1.98;;
35667;SDS011;22158;59.280;17.806;2022-11-15T05:40:41;3.38;;;2.35;;
35667;SDS011;22158;59.280;17.806;2022-11-15T05:43:07;4.35;;;2.15;;
35667;SDS011;22158;59.280;17.806;2022-11-15T05:45:34;4.00;;;1.88;;
35667;SDS011;22158;59.280;17.806;2022-11-15T05:48:01;4.28;;;2.05;;
35667;SDS011;22158;59.280;17.806;2022-11-15T05:50:32;4.70;;;2.13;;
35667;SDS011;22158;59.280;17.806;2022-11-15T05:52:59;5.10;;;2.10;;
35667;SDS011;22158;59.280;17.806;2022-11-15T05:55:25;3.88;;;2.30;;
35667;SDS011;22158;59.280;17.806;2022-11-15T05:57:51;4.93;;;2.08;;
35667;SDS011;22158;59.280;17.806;2022-11-15T06:00:17;9.50;;;2.25;;
35667;SDS011;22158;59.280;17.806;2022-11-15T06:02:43;2.67;;;2.10;;
35667;SDS011;22158;59.280;17.806;2022-11-15T06:05:08;6.78;;;3.50;;
35667;SDS011;22158;59.280;17.806;2022-11-15T06:07:34;6.18;;;2.13;;
35667;SDS011;22158;59.280;17.806;2022-11-15T06:09:59;4.68;;;2.30;;
35667;SDS011;22158;59.280;17.806;2022-11-15T06:12:25;7.80;;;2.22;;
35667;SDS011;22158;59.280;17.806;2022-11-15T06:14:51;3.58;;;2.20;;
35667;SDS011;22158;59.280;17.806;2022-11-15T06:17:16;2.90;;;1.80;;
35667;SDS011;22158;59.280;17.806;2022-11-15T06:19:42;2.45;;;1.60;;
35667;SDS011;22158;59.280;17.806;2022-11-15T06:22:08;2.85;;;1.67;;
35667;SDS011;22158;59.280;17.806;2022-11-15T06:24:34;5.75;;;1.60;;
35667;SDS011;22158;59.280;17.806;2022-11-15T06:27:00;2.42;;;1.50;;
35667;SDS011;22158;59.280;17.806;2022-11-15T06:29:25;4.10;;;2.00;;
35667;SDS011;22158;59.280;17.806;2022-11-15T06:31:51;3.45;;;1.70;;
35667;SDS011;22158;59.280;17.806;2022-11-15T06:34:17;2.55;;;1.70;;
35667;SDS011;22158;59.280;17.806;2022-11-15T06:36:43;2.83;;;1.63;;
35667;SDS011;22158;59.280;17.806;2022-11-15T06:39:11;2.72;;;1.65;;
35667;SDS011;22158;59.280;17.806;2022-11-15T06:41:37;6.20;;;1.42;;
35667;SDS011;22158;59.280;17.806;2022-11-15T06:44:02;6.85;;;1.67;;
35667;SDS011;22158;59.280;17.806;2022-11-15T06:46:28;7.72;;;1.58;;
35667;SDS011;22158;59.280;17.806;2022-11-15T06:48:54;2.22;;;1.48;;
35667;SDS011;22158;59.280;17.806;2022-11-15T06:51:20;3.80;;;1.40;;
35667;SDS011;22158;59.280;17.806;2022-11-15T06:53:45;3.75;;;1.95;;
35667;SDS011;22158;59.280;17.806;2022-11-15T06:56:11;5.40;;;1.23;;
35667;SDS011;22158;59.280;17.806;2022-11-15T06:58:37;3.05;;;1.55;;
35667;SDS011;22158;59.280;17.806;2022-11-15T07:01:07;1.92;;;1.73;;
35667;SDS011;22158;59.280;17.806;2022-11-15T07:03:35;2.33;;;1.58;;
35667;SDS011;22158;59.280;17.806;2022-11-15T07:06:05;3.10;;;1.30;;
35667;SDS011;22158;59.280;17.806;2022-11-15T07:08:31;2.65;;;1.85;;
35667;SDS011;22158;59.280;17.806;2022-11-15T07:11:01;4.13;;;1.25;;
35667;SDS011;22158;59.280;17.806;2022-11-15T07:13:29;2.72;;;1.30;;
35667;SDS011;22158;59.280;17.806;2022-11-15T07:15:58;3.22;;;1.25;;
35667;SDS011;22158;59.280;17.806;2022-11-15T07:18:26;2.17;;;1.23;;
35667;SDS011;22158;59.280;17.806;2022-11-15T07:20:53;1.58;;;1.20;;
35667;SDS011;22158;59.280;17.806;2022-11-15T07:23:19;3.60;;;1.40;;
35667;SDS011;22158;59.280;17.806;2022-11-15T07:25:44;4.43;;;1.65;;
35667;SDS011;22158;59.280;17.806;2022-11-15T07:28:10;6.47;;;2.28;;
35667;SDS011;22158;59.280;17.806;2022-11-15T07:30:36;4.43;;;1.80;;
35667;SDS011;22158;59.280;17.806;2022-11-15T07:33:01;6.50;;;1.92;;
35667;SDS011;22158;59.280;17.806;2022-11-15T07:35:28;4.20;;;1.42;;
35667;SDS011;22158;59.280;17.806;2022-11-15T07:37:58;2.17;;;1.30;;
35667;SDS011;22158;59.280;17.806;2022-11-15T07:40:26;6.07;;;1.50;;
35667;SDS011;22158;59.280;17.806;2022-11-15T07:43:03;3.63;;;1.20;;
35667;SDS011;22158;59.280;17.806;2022-11-15T07:45:30;8.65;;;1.83;;
35667;SDS011;22158;59.280;17.806;2022-11-15T07:47:58;3.45;;;1.52;;
35667;SDS011;22158;59.280;17.806;2022-11-15T07:50:25;5.05;;;1.80;;
35667;SDS011;22158;59.280;17.806;2022-11-15T07:52:54;10.07;;;2.22;;
35667;SDS011;22158;59.280;17.806;2022-11-15T07:55:22;4.38;;;1.33;;
35667;SDS011;22158;59.280;17.806;2022-11-15T07:57:52;5.05;;;1.50;;
35667;SDS011;22158;59.280;17.806;2022-11-15T08:00:18;4.05;;;1.20;;
35667;SDS011;22158;59.280;17.806;2022-11-15T08:02:44;3.10;;;1.42;;
35667;SDS011;22158;59.280;17.806;2022-11-15T08:05:10;4.95;;;1.40;;
35667;SDS011;22158;59.280;17.806;2022-11-15T08:07:36;4.90;;;2.15;;
35667;SDS011;22158;59.280;17.806;2022-11-15T08:10:03;6.45;;;1.60;;
35667;SDS011;22158;59.280;17.806;2022-11-15T08:12:30;3.95;;;1.50;;
35667;SDS011;22158;59.280;17.806;2022-11-15T08:14:56;4.93;;;2.15;;
35667;SDS011;22158;59.280;17.806;2022-11-15T08:17:23;5.28;;;1.40;;
35667;SDS011;22158;59.280;17.806;2022-11-15T08:19:49;6.63;;;1.60;;
35667;SDS011;22158;59.280;17.806;2022-11-15T08:22:14;4.00;;;1.40;;
35667;SDS011;22158;59.280;17.806;2022-11-15T08:24:40;1.80;;;1.33;;
35667;SDS011;22158;59.280;17.806;2022-11-15T08:27:06;2.67;;;1.48;;
35667;SDS011;22158;59.280;17.806;2022-11-15T08:29:45;3.40;;;1.33;;
35667;SDS011;22158;59.280;17.806;2022-11-15T08:32:13;1.70;;;1.10;;
35667;SDS011;22158;59.280;17.806;2022-11-15T08:34:38;7.55;;;1.80;;
35667;SDS011;22158;59.280;17.806;2022-11-15T08:37:04;7.60;;;1.52;;
35667;SDS011;22158;59.280;17.806;2022-11-15T08:39:30;3.63;;;1.45;;
35667;SDS011;22158;59.280;17.806;2022-11-15T08:41:56;4.18;;;1.50;;
35667;SDS011;22158;59.280;17.806;2022-11-15T08:44:22;7.32;;;1.23;;
35667;SDS011;22158;59.280;17.806;2022-11-15T08:46:49;4.72;;;1.33;;
35667;SDS011;22158;59.280;17.806;2022-11-15T08:49:15;3.10;;;1.30;;
35667;SDS011;22158;59.280;17.806;2022-11-15T08:51:41;6.63;;;1.58;;
35667;SDS011;22158;59.280;17.806;2022-11-15T08:54:07;2.40;;;1.27;;
35667;SDS011;22158;59.280;17.806;2022-11-15T08:56:32;3.97;;;1.58;;
35667;SDS011;22158;59.280;17.806;2022-11-15T08:58:58;2.13;;;1.15;;
35667;SDS011;22158;59.280;17.806;2022-11-15T09:01:23;5.35;;;1.20;;
35667;SDS011;22158;59.280;17.806;2022-11-15T09:03:49;4.25;;;1.40;;
35667;SDS011;22158;59.280;17.806;2022-11-15T09:06:16;3.13;;;1.35;;
35667;SDS011;22158;59.280;17.806;2022-11-15T09:08:41;3.63;;;1.33;;
35667;SDS011;22158;59.280;17.806;2022-11-15T09:11:08;3.10;;;1.20;;
35667;SDS011;22158;59.280;17.806;2022-11-15T09:13:35;2.50;;;1.58;;
35667;SDS011;22158;59.280;17.806;2022-11-15T09:16:04;3.80;;;1.15;;
35667;SDS011;22158;59.280;17.806;2022-11-15T09:18:29;6.82;;;2.08;;
35667;SDS011;22158;59.280;17.806;2022-11-15T09:20:56;4.47;;;1.52;;
35667;SDS011;22158;59.280;17.806;2022-11-15T09:23:22;5.78;;;1.50;;
35667;SDS011;22158;59.280;17.806;2022-11-15T09:25:49;3.72;;;0.90;;
35667;SDS011;22158;59.280;17.806;2022-11-15T09:28:14;5.28;;;1.67;;
35667;SDS011;22158;59.280;17.806;2022-11-15T09:30:40;1.15;;;0.88;;
35667;SDS011;22158;59.280;17.806;2022-11-15T09:33:09;3.40;;;0.90;;
35667;SDS011;22158;59.280;17.806;2022-11-15T09:35:36;3.15;;;0.90;;
35667;SDS011;22158;59.280;17.806;2022-11-15T09:38:02;2.95;;;1.48;;
35667;SDS011;22158;59.280;17.806;2022-11-15T09:40:29;7.82;;;1.27;;
35667;SDS011;22158;59.280;17.806;2022-11-15T09:45:55;3.10;;;0.93;;
35667;SDS011;22158;59.280;17.806;2022-11-15T09:48:44;2.58;;;0.70;;
35667;SDS011;22158;59.280;17.806;2022-11-15T09:51:35;2.13;;;0.85;;
35667;SDS011;22158;59.280;17.806;2022-11-15T09:54:56;2.33;;;0.90;;
35667;SDS011;22158;59.280;17.806;2022-11-15T10:02:43;6.53;;;1.13;;
35667;SDS011;22158;59.280;17.806;2022-11-15T10:05:16;0.82;;;0.70;;
35667;SDS011;22158;59.280;17.806;2022-11-15T10:10:49;1.92;;;0.82;;
35667;SDS011;22158;59.280;17.806;2022-11-15T10:13:35;1.58;;;0.93;;
35667;SDS011;22158;59.280;17.806;2022-11-15T10:19:00;2.38;;;0.80;;
35667;SDS011;22158;59.280;17.806;2022-11-15T10:24:25;2.85;;;0.75;;
35667;SDS011;22158;59.280;17.806;2022-11-15T10:26:54;5.40;;;1.00;;
35667;SDS011;22158;59.280;17.806;2022-11-15T10:29:21;1.92;;;0.90;;
35667;SDS011;22158;59.280;17.806;2022-11-15T10:31:48;2.58;;;0.90;;
35667;SDS011;22158;59.280;17.806;2022-11-15T10:34:21;3.60;;;1.20;;
35667;SDS011;22158;59.280;17.806;2022-11-15T10:36:55;1.60;;;0.85;;
35667;SDS011;22158;59.280;17.806;2022-11-15T10:39:22;2.08;;;0.88;;
35667;SDS011;22158;59.280;17.806;2022-11-15T10:41:48;4.50;;;2.13;;
35667;SDS011;22158;59.280;17.806;2022-11-15T10:46:45;4.03;;;0.90;;
35667;SDS011;22158;59.280;17.806;2022-11-15T10:49:33;1.65;;;0.90;;
35667;SDS011;22158;59.280;17.806;2022-11-15T10:57:26;2.70;;;1.25;;
35667;SDS011;22158;59.280;17.806;2022-11-15T10:59:56;3.05;;;1.33;;
35667;SDS011;22158;59.280;17.806;2022-11-15T11:05:24;2.30;;;1.38;;
35667;SDS011;22158;59.280;17.806;2022-11-15T11:08:36;5.63;;;1.63;;
35667;SDS011;22158;59.280;17.806;2022-11-15T11:10:54;3.50;;;1.23;;
35667;SDS011;22158;59.280;17.806;2022-11-15T11:13:28;1.55;;;1.00;;
35667;SDS011;22158;59.280;17.806;2022-11-15T11:16:00;5.80;;;1.13;;
35667;SDS011;22158;59.280;17.806;2022-11-15T11:18:37;2.25;;;1.20;;
35667;SDS011;22158;59.280;17.806;2022-11-15T11:29:56;2.35;;;1.25;;
35667;SDS011;22158;59.280;17.806;2022-11-15T11:35:24;1.20;;;1.10;;
35667;SDS011;22158;59.280;17.806;2022-11-15T11:39:05;3.58;;;1.42;;
35667;SDS011;22158;59.280;17.806;2022-11-15T11:43:36;2.35;;;1.38;;
35667;SDS011;22158;59.280;17.806;2022-11-15T11:46:18;2.85;;;1.48;;
35667;SDS011;22158;59.280;17.806;2022-11-15T11:51:54;2.85;;;1.40;;
35667;SDS011;22158;59.280;17.806;2022-11-15T11:54:51;4.97;;;1.45;;
35667;SDS011;22158;59.280;17.806;2022-11-15T11:58:31;4.03;;;1.90;;
35667;SDS011;22158;59.280;17.806;2022-11-15T12:00:28;3.30;;;1.20;;
35667;SDS011;22158;59.280;17.806;2022-11-15T12:03:08;1.48;;;1.23;;
35667;SDS011;22158;59.280;17.806;2022-11-15T12:05:46;3.25;;;1.50;;
35667;SDS011;22158;59.280;17.806;2022-11-15T12:13:32;2.67;;;1.58;;
35667;SDS011;22158;59.280;17.806;2022-11-15T12:16:17;9.27;;;1.98;;
35667;SDS011;22158;59.280;17.806;2022-11-15T12:18:48;2.15;;;1.20;;
35667;SDS011;22158;59.280;17.806;2022-11-15T12:26:47;4.15;;;1.25;;
35667;SDS011;22158;59.280;17.806;2022-11-15T12:29:26;4.63;;;1.80;;
35667;SDS011;22158;59.280;17.806;2022-11-15T12:32:00;2.30;;;1.40;;
35667;SDS011;22158;59.280;17.806;2022-11-15T12:36:52;3.22;;;1.73;;
35667;SDS011;22158;59.280;17.806;2022-11-15T12:39:18;2.92;;;1.33;;
35667;SDS011;22158;59.280;17.806;2022-11-15T12:45:23;3.25;;;1.30;;
35667;SDS011;22158;59.280;17.806;2022-11-15T12:52:04;5.18;;;1.98;;
35667;SDS011;22158;59.280;17.806;2022-11-15T13:17:45;2.83;;;1.40;;
35667;SDS011;22158;59.280;17.806;2022-11-15T13:30:52;2.55;;;1.30;;
35667;SDS011;22158;59.280;17.806;2022-11-15T13:33:23;6.47;;;1.30;;
35667;SDS011;22158;59.280;17.806;2022-11-15T13:39:04;1.80;;;1.20;;
35667;SDS011;22158;59.280;17.806;2022-11-15T13:41:35;3.25;;;1.48;;
35667;SDS011;22158;59.280;17.806;2022-11-15T13:44:17;6.70;;;2.83;;
35667;SDS011;22158;59.280;17.806;2022-11-15T13:46:45;6.78;;;1.85;;
35667;SDS011;22158;59.280;17.806;2022-11-15T13:49:10;3.28;;;2.08;;
35667;SDS011;22158;59.280;17.806;2022-11-15T13:51:38;3.40;;;1.65;;
35667;SDS011;22158;59.280;17.806;2022-11-15T13:54:26;4.45;;;1.40;;
35667;SDS011;22158;59.280;17.806;2022-11-15T13:57:01;1.58;;;1.10;;
35667;SDS011;22158;59.280;17.806;2022-11-15T13:59:30;4.47;;;1.88;;
35667;SDS011;22158;59.280;17.806;2022-11-15T14:02:14;2.55;;;1.67;;
35667;SDS011;22158;59.280;17.806;2022-11-15T14:04:59;4.20;;;1.50;;
35667;SDS011;22158;59.280;17.806;2022-11-15T14:07:40;2.75;;;1.67;;
35667;SDS011;22158;59.280;17.806;2022-11-15T14:10:32;1.75;;;1.20;;
35667;SDS011;22158;59.280;17.806;2022-11-15T14:12:59;6.57;;;1.52;;
35667;SDS011;22158;59.280;17.806;2022-11-15T14:15:36;4.00;;;1.15;;
35667;SDS011;22158;59.280;17.806;2022-11-15T14:18:03;3.47;;;1.25;;
35667;SDS011;22158;59.280;17.806;2022-11-15T14:20:36;5.43;;;1.48;;
35667;SDS011;22158;59.280;17.806;2022-11-15T14:23:25;4.97;;;1.35;;
35667;SDS011;22158;59.280;17.806;2022-11-15T14:25:54;1.95;;;1.15;;
35667;SDS011;22158;59.280;17.806;2022-11-15T14:30:47;2.15;;;1.20;;
35667;SDS011;22158;59.280;17.806;2022-11-15T14:35:46;2.42;;;1.20;;
35667;SDS011;22158;59.280;17.806;2022-11-15T14:38:12;5.35;;;1.33;;
35667;SDS011;22158;59.280;17.806;2022-11-15T14:40:39;3.75;;;2.17;;
35667;SDS011;22158;59.280;17.806;2022-11-15T14:43:07;3.90;;;1.40;;
35667;SDS011;22158;59.280;17.806;2022-11-15T14:45:37;5.43;;;1.58;;
35667;SDS011;22158;59.280;17.806;2022-11-15T14:48:03;2.78;;;1.52;;
35667;SDS011;22158;59.280;17.806;2022-11-15T14:50:29;3.03;;;1.38;;
35667;SDS011;22158;59.280;17.806;2022-11-15T14:52:56;3.35;;;1.83;;
35667;SDS011;22158;59.280;17.806;2022-11-15T14:55:24;2.45;;;1.45;;
35667;SDS011;22158;59.280;17.806;2022-11-15T14:57:52;5.95;;;1.58;;
35667;SDS011;22158;59.280;17.806;2022-11-15T15:00:18;2.42;;;1.17;;
35667;SDS011;22158;59.280;17.806;2022-11-15T15:02:45;3.13;;;1.23;;
35667;SDS011;22158;59.280;17.806;2022-11-15T15:05:16;4.45;;;1.38;;
35667;SDS011;22158;59.280;17.806;2022-11-15T15:07:42;1.33;;;1.00;;
35667;SDS011;22158;59.280;17.806;2022-11-15T15:10:08;3.60;;;1.33;;
35667;SDS011;22158;59.280;17.806;2022-11-15T15:12:34;2.50;;;1.17;;
35667;SDS011;22158;59.280;17.806;2022-11-15T15:14:59;1.92;;;1.20;;
35667;SDS011;22158;59.280;17.806;2022-11-15T15:17:25;5.35;;;1.55;;
35667;SDS011;22158;59.280;17.806;2022-11-15T15:19:51;4.97;;;1.13;;
35667;SDS011;22158;59.280;17.806;2022-11-15T15:22:17;5.75;;;1.27;;
35667;SDS011;22158;59.280;17.806;2022-11-15T15:24:46;3.15;;;1.08;;
35667;SDS011;22158;59.280;17.806;2022-11-15T15:27:12;2.60;;;1.50;;
35667;SDS011;22158;59.280;17.806;2022-11-15T15:29:38;5.65;;;1.20;;
35667;SDS011;22158;59.280;17.806;2022-11-15T15:32:04;3.38;;;0.90;;
35667;SDS011;22158;59.280;17.806;2022-11-15T15:34:30;1.38;;;0.98;;
35667;SDS011;22158;59.280;17.806;2022-11-15T15:39:50;3.92;;;1.10;;
35667;SDS011;22158;59.280;17.806;2022-11-15T15:42:20;2.50;;;1.23;;
35667;SDS011;22158;59.280;17.806;2022-11-15T15:44:47;3.20;;;1.48;;
35667;SDS011;22158;59.280;17.806;2022-11-15T15:47:15;2.58;;;1.30;;
35667;SDS011;22158;59.280;17.806;2022-11-15T15:49:45;4.15;;;1.17;;
35667;SDS011;22158;59.280;17.806;2022-11-15T15:52:11;7.68;;;1.98;;
35667;SDS011;22158;59.280;17.806;2022-11-15T15:54:37;3.97;;;1.17;;
35667;SDS011;22158;59.280;17.806;2022-11-15T15:57:04;1.20;;;0.90;;
35667;SDS011;22158;59.280;17.806;2022-11-15T15:59:30;2.42;;;1.17;;
35667;SDS011;22158;59.280;17.806;2022-11-15T16:01:56;2.05;;;0.88;;
35667;SDS011;22158;59.280;17.806;2022-11-15T16:04:22;2.78;;;0.90;;
35667;SDS011;22158;59.280;17.806;2022-11-15T16:06:47;2.90;;;1.02;;
35667;SDS011;22158;59.280;17.806;2022-11-15T16:09:16;1.23;;;0.90;;
35667;SDS011;22158;59.280;17.806;2022-11-15T16:11:44;1.52;;;1.08;;
35667;SDS011;22158;59.280;17.806;2022-11-15T16:14:10;2.80;;;1.08;;
35667;SDS011;22158;59.280;17.806;2022-11-15T16:16:37;3.83;;;1.33;;
35667;SDS011;22158;59.280;17.806;2022-11-15T16:19:03;1.40;;;1.15;;
35667;SDS011;22158;59.280;17.806;2022-11-15T16:21:29;1.88;;;1.35;;
35667;SDS011;22158;59.280;17.806;2022-11-15T16:23:55;2.67;;;1.13;;
35667;SDS011;22158;59.280;17.806;2022-11-15T16:26:22;3.15;;;0.93;;
35667;SDS011;22158;59.280;17.806;2022-11-15T16:28:51;2.07;;;1.23;;
35667;SDS011;22158;59.280;17.806;2022-11-15T16:31:17;3.25;;;1.10;;
35667;SDS011;22158;59.280;17.806;2022-11-15T16:33:45;2.35;;;1.15;;
35667;SDS011;22158;59.280;17.806;2022-11-15T16:36:14;4.95;;;1.90;;
35667;SDS011;22158;59.280;17.806;2022-11-15T16:38:41;4.93;;;1.83;;
35667;SDS011;22158;59.280;17.806;2022-11-15T16:41:07;3.33;;;1.23;;
35667;SDS011;22158;59.280;17.806;2022-11-15T16:43:33;4.53;;;1.20;;
35667;SDS011;22158;59.280;17.806;2022-11-15T16:45:59;2.60;;;1.30;;
35667;SDS011;22158;59.280;17.806;2022-11-15T16:48:33;5.60;;;1.13;;
35667;SDS011;22158;59.280;17.806;2022-11-15T16:50:59;3.00;;;1.42;;
35667;SDS011;22158;59.280;17.806;2022-11-15T16:53:25;5.13;;;1.30;;
35667;SDS011;22158;59.280;17.806;2022-11-15T16:55:51;3.30;;;1.60;;
35667;SDS011;22158;59.280;17.806;2022-11-15T16:58:20;2.22;;;1.73;;
35667;SDS011;22158;59.280;17.806;2022-11-15T17:00:49;2.42;;;1.40;;
35667;SDS011;22158;59.280;17.806;2022-11-15T17:03:19;1.98;;;1.27;;
35667;SDS011;22158;59.280;17.806;2022-11-15T17:05:45;5.65;;;1.52;;
35667;SDS011;22158;59.280;17.806;2022-11-15T17:08:11;8.27;;;1.70;;
35667;SDS011;22158;59.280;17.806;2022-11-15T17:10:39;3.22;;;1.08;;
35667;SDS011;22158;59.280;17.806;2022-11-15T17:13:07;2.72;;;1.10;;
35667;SDS011;22158;59.280;17.806;2022-11-15T17:15:36;3.10;;;1.05;;
35667;SDS011;22158;59.280;17.806;2022-11-15T17:18:02;3.03;;;1.50;;
35667;SDS011;22158;59.280;17.806;2022-11-15T17:20:27;2.47;;;1.60;;
35667;SDS011;22158;59.280;17.806;2022-11-15T17:22:53;4.63;;;1.30;;
35667;SDS011;22158;59.280;17.806;2022-11-15T17:25:20;3.92;;;1.30;;
35667;SDS011;22158;59.280;17.806;2022-11-15T17:27:46;2.10;;;1.48;;
35667;SDS011;22158;59.280;17.806;2022-11-15T17:30:12;4.03;;;1.77;;
35667;SDS011;22158;59.280;17.806;2022-11-15T17:32:42;1.35;;;1.13;;
35667;SDS011;22158;59.280;17.806;2022-11-15T17:35:08;3.53;;;1.20;;
35667;SDS011;22158;59.280;17.806;2022-11-15T17:37:36;1.60;;;0.93;;
35667;SDS011;22158;59.280;17.806;2022-11-15T17:40:01;2.28;;;1.52;;
35667;SDS011;22158;59.280;17.806;2022-11-15T17:42:27;3.50;;;1.52;;
35667;SDS011;22158;59.280;17.806;2022-11-15T17:44:53;3.28;;;1.30;;
35667;SDS011;22158;59.280;17.806;2022-11-15T17:47:18;5.25;;;1.67;;
35667;SDS011;22158;59.280;17.806;2022-11-15T17:49:44;2.50;;;0.90;;
35667;SDS011;22158;59.280;17.806;2022-11-15T17:52:10;3.72;;;0.93;;
35667;SDS011;22158;59.280;17.806;2022-11-15T17:54:35;4.13;;;1.20;;
35667;SDS011;22158;59.280;17.806;2022-11-15T17:57:01;1.35;;;1.00;;
35667;SDS011;22158;59.280;17.806;2022-11-15T17:59:27;6.10;;;1.70;;
35667;SDS011;22158;59.280;17.806;2022-11-15T18:01:52;1.45;;;1.08;;
35667;SDS011;22158;59.280;17.806;2022-11-15T18:04:18;2.72;;;1.15;;
35667;SDS011;22158;59.280;17.806;2022-11-15T18:06:44;2.53;;;1.02;;
35667;SDS011;22158;59.280;17.806;2022-11-15T18:09:09;4.13;;;1.55;;
35667;SDS011;22158;59.280;17.806;2022-11-15T18:11:39;4.38;;;1.10;;
35667;SDS011;22158;59.280;17.806;2022-11-15T18:14:08;2.22;;;1.13;;
35667;SDS011;22158;59.280;17.806;2022-11-15T18:16:37;1.70;;;1.00;;
35667;SDS011;22158;59.280;17.806;2022-11-15T18:19:04;0.95;;;0.85;;
35667;SDS011;22158;59.280;17.806;2022-11-15T18:21:35;3.08;;;1.40;;
35667;SDS011;22158;59.280;17.806;2022-11-15T18:24:20;1.27;;;0.95;;
35667;SDS011;22158;59.280;17.806;2022-11-15T18:27:05;2.25;;;1.00;;
35667;SDS011;22158;59.280;17.806;2022-11-15T18:29:31;3.03;;;1.30;;
35667;SDS011;22158;59.280;17.806;2022-11-15T18:31:59;3.20;;;1.23;;
35667;SDS011;22158;59.280;17.806;2022-11-15T18:34:27;2.75;;;1.58;;
35667;SDS011;22158;59.280;17.806;2022-11-15T18:36:56;1.27;;;1.00;;
35667;SDS011;22158;59.280;17.806;2022-11-15T18:39:22;1.95;;;0.90;;
35667;SDS011;22158;59.280;17.806;2022-11-15T18:41:47;1.30;;;0.90;;
35667;SDS011;22158;59.280;17.806;2022-11-15T18:44:13;1.42;;;0.85;;
35667;SDS011;22158;59.280;17.806;2022-11-15T18:46:40;1.92;;;0.82;;
35667;SDS011;22158;59.280;17.806;2022-11-15T18:49:07;1.73;;;0.90;;
35667;SDS011;22158;59.280;17.806;2022-11-15T18:51:34;2.33;;;1.15;;
35667;SDS011;22158;59.280;17.806;2022-11-15T18:54:01;1.60;;;0.70;;
35667;SDS011;22158;59.280;17.806;2022-11-15T18:56:28;1.90;;;1.05;;
35667;SDS011;22158;59.280;17.806;2022-11-15T18:58:56;1.00;;;0.80;;
35667;SDS011;22158;59.280;17.806;2022-11-15T19:01:24;1.45;;;0.90;;
35667;SDS011;22158;59.280;17.806;2022-11-15T19:03:53;1.58;;;0.70;;
35667;SDS011;22158;59.280;17.806;2022-11-15T19:06:22;2.50;;;0.90;;
35667;SDS011;22158;59.280;17.806;2022-11-15T19:08:51;3.67;;;1.50;;
35667;SDS011;22158;59.280;17.806;2022-11-15T19:11:22;1.40;;;0.85;;
35667;SDS011;22158;59.280;17.806;2022-11-15T19:16:27;1.27;;;0.90;;
35667;SDS011;22158;59.280;17.806;2022-11-15T19:18:54;5.25;;;1.10;;
35667;SDS011;22158;59.280;17.806;2022-11-15T19:21:21;0.88;;;0.70;;
35667;SDS011;22158;59.280;17.806;2022-11-15T19:23:48;1.83;;;1.15;;
35667;SDS011;22158;59.280;17.806;2022-11-15T19:26:14;1.58;;;0.82;;
35667;SDS011;22158;59.280;17.806;2022-11-15T19:28:41;2.35;;;0.90;;
35667;SDS011;22158;59.280;17.806;2022-11-15T19:31:11;1.35;;;0.90;;
35667;SDS011;22158;59.280;17.806;2022-11-15T19:33:38;1.48;;;0.95;;
35667;SDS011;22158;59.280;17.806;2022-11-15T19:36:05;5.55;;;1.65;;
35667;SDS011;22158;59.280;17.806;2022-11-15T19:38:34;1.75;;;1.40;;
35667;SDS011;22158;59.280;17.806;2022-11-15T19:41:03;2.60;;;0.90;;
35667;SDS011;22158;59.280;17.806;2022-11-15T19:43:30;2.03;;;1.00;;
35667;SDS011;22158;59.280;17.806;2022-11-15T19:45:57;1.00;;;0.90;;
35667;SDS011;22158;59.280;17.806;2022-11-15T19:48:25;1.65;;;1.02;;
35667;SDS011;22158;59.280;17.806;2022-11-15T19:50:51;1.17;;;0.98;;
35667;SDS011;22158;59.280;17.806;2022-11-15T19:53:17;1.50;;;0.90;;
35667;SDS011;22158;59.280;17.806;2022-11-15T19:55:57;1.10;;;0.85;;
35667;SDS011;22158;59.280;17.806;2022-11-15T19:58:24;2.50;;;0.70;;
35667;SDS011;22158;59.280;17.806;2022-11-15T20:00:57;1.30;;;0.80;;
35667;SDS011;22158;59.280;17.806;2022-11-15T20:03:28;1.00;;;0.82;;
35667;SDS011;22158;59.280;17.806;2022-11-15T20:08:30;1.85;;;0.93;;
35667;SDS011;22158;59.280;17.806;2022-11-15T20:10:57;1.77;;;1.00;;
35667;SDS011;22158;59.280;17.806;2022-11-15T20:13:23;1.42;;;0.70;;
35667;SDS011;22158;59.280;17.806;2022-11-15T20:15:49;1.10;;;0.73;;
35667;SDS011;22158;59.280;17.806;2022-11-15T20:18:15;2.03;;;0.90;;
35667;SDS011;22158;59.280;17.806;2022-11-15T20:20:41;2.97;;;0.80;;
35667;SDS011;22158;59.280;17.806;2022-11-15T20:23:07;1.48;;;0.98;;
35667;SDS011;22158;59.280;17.806;2022-11-15T20:25:33;2.70;;;1.23;;
35667;SDS011;22158;59.280;17.806;2022-11-15T20:28:02;0.82;;;0.75;;
35667;SDS011;22158;59.280;17.806;2022-11-15T20:30:31;1.23;;;1.08;;
35667;SDS011;22158;59.280;17.806;2022-11-15T20:32:58;2.90;;;0.82;;
35667;SDS011;22158;59.280;17.806;2022-11-15T20:35:23;1.10;;;0.70;;
35667;SDS011;22158;59.280;17.806;2022-11-15T20:37:49;1.60;;;1.13;;
35667;SDS011;22158;59.280;17.806;2022-11-15T20:40:15;1.42;;;0.98;;
35667;SDS011;22158;59.280;17.806;2022-11-15T20:42:41;1.92;;;1.10;;
35667;SDS011;22158;59.280;17.806;2022-11-15T20:45:07;1.80;;;1.00;;
35667;SDS011;22158;59.280;17.806;2022-11-15T20:47:33;1.75;;;1.17;;
35667;SDS011;22158;59.280;17.806;2022-11-15T20:49:58;2.85;;;1.05;;
35667;SDS011;22158;59.280;17.806;2022-11-15T20:52:24;3.17;;;1.00;;
35667;SDS011;22158;59.280;17.806;2022-11-15T20:54:50;2.03;;;1.00;;
35667;SDS011;22158;59.280;17.806;2022-11-15T20:57:16;3.30;;;0.90;;
35667;SDS011;22158;59.280;17.806;2022-11-15T20:59:41;6.88;;;1.20;;
35667;SDS011;22158;59.280;17.806;2022-11-15T21:02:11;1.33;;;1.00;;
35667;SDS011;22158;59.280;17.806;2022-11-15T21:04:39;1.58;;;1.20;;
35667;SDS011;22158;59.280;17.806;2022-11-15T21:07:05;3.15;;;1.20;;
35667;SDS011;22158;59.280;17.806;2022-11-15T21:09:31;1.17;;;1.08;;
35667;SDS011;22158;59.280;17.806;2022-11-15T21:12:16;1.35;;;0.70;;
35667;SDS011;22158;59.280;17.806;2022-11-15T21:14:43;3.65;;;1.02;;
35667;SDS011;22158;59.280;17.806;2022-11-15T21:17:10;4.82;;;1.98;;
35667;SDS011;22158;59.280;17.806;2022-11-15T21:19:36;3.10;;;1.10;;
35667;SDS011;22158;59.280;17.806;2022-11-15T21:22:02;1.67;;;1.55;;
35667;SDS011;22158;59.280;17.806;2022-11-15T21:24:31;1.30;;;0.90;;
35667;SDS011;22158;59.280;17.806;2022-11-15T21:26:56;1.70;;;1.00;;
35667;SDS011;22158;59.280;17.806;2022-11-15T21:29:22;3.38;;;1.25;;
35667;SDS011;22158;59.280;17.806;2022-11-15T21:31:48;2.88;;;1.23;;
35667;SDS011;22158;59.280;17.806;2022-11-15T21:34:15;1.20;;;1.10;;
35667;SDS011;22158;59.280;17.806;2022-11-15T21:36:42;3.00;;;1.40;;
35667;SDS011;22158;59.280;17.806;2022-11-15T21:39:08;2.85;;;0.95;;